»·PEaware :: N242SK KLAS-KPSP

N242SK :: KLAS-KPSP

FLIGHT INFORMATION

Flight Status: Arrived
Operator: Privately registered:
United States
More flights under this callsign
Pilot: Sanjiv S. (4490)
Aircraft: SOCATA TBM-900
(TBM9)
More flights by this aircraft type
Origin: KLAS McCarran Intl
United States
Destination: KPSP Palm Springs Intl
United States
More flights between these airports :: More routes between these airports
Route: +V538 GFS SBONO1
File this flight plan on PilotEdge
Remarks:
Altitude:
(Current/Filed)
16,000ft
Speed:
(Current/Filed)
240kts
Departed: 12-Nov-18 10:01 AM
Arrived: 12-Nov-18 10:54 AM
Distance/Time
Traveled:
151nm/0:52
Distance/Time
To Go:
Arrived

Flight Plot

Page will automatically refresh every two minutes.

Flight plan parsing failed; only flown route is shown


Map Options




Map Legend


Flown Route
Filed Route
Departure Airport
Arrival Airport
Navaid (VOR, NDB)
Fix

Horizontal Profiles

Position Reports

Time Latitude Longitude Heading Altitude Ground
Speed
12-Nov-18 09:22 36.099091 -115.162268 177 2114ft 0kts
12-Nov-18 09:23 36.099091 -115.162268 177 2114ft 0kts
12-Nov-18 09:24 36.099091 -115.162268 177 2114ft 0kts
12-Nov-18 09:25 36.099091 -115.162268 177 2114ft 0kts
12-Nov-18 09:26 36.099091 -115.162268 177 2114ft 0kts
12-Nov-18 09:27 36.099091 -115.162268 177 2114ft 0kts
12-Nov-18 09:28 36.099091 -115.162268 177 2114ft 0kts
12-Nov-18 09:29 36.099091 -115.162268 177 2114ft 0kts
12-Nov-18 09:30 36.099091 -115.162268 177 2114ft 0kts
12-Nov-18 09:31 36.099091 -115.162268 177 2114ft 0kts
12-Nov-18 09:32 36.099091 -115.162268 177 2114ft 0kts
12-Nov-18 09:33 36.099091 -115.162268 177 2114ft 0kts
12-Nov-18 09:34 36.099091 -115.162268 177 2114ft 0kts
12-Nov-18 09:35 36.099091 -115.162268 177 2114ft 0kts
12-Nov-18 09:36 36.099091 -115.162268 177 2114ft 0kts
12-Nov-18 09:37 36.099091 -115.162268 177 2114ft 0kts
12-Nov-18 09:38 36.099091 -115.162268 177 2114ft 0kts
12-Nov-18 09:39 36.099091 -115.162268 177 2114ft 0kts
12-Nov-18 09:40 36.099091 -115.162268 177 2114ft 0kts
12-Nov-18 09:41 36.099091 -115.162268 177 2114ft 0kts
12-Nov-18 09:42 36.099091 -115.162268 177 2114ft 0kts
12-Nov-18 09:43 36.099091 -115.162268 177 2114ft 0kts
12-Nov-18 09:44 36.099091 -115.162268 177 2114ft 0kts
12-Nov-18 09:45 36.099091 -115.162268 177 2114ft 0kts
12-Nov-18 09:46 36.099091 -115.162268 177 2114ft 0kts
12-Nov-18 09:47 36.099091 -115.162268 177 2114ft 0kts
12-Nov-18 09:48 36.099091 -115.162268 177 2114ft 0kts
12-Nov-18 09:49 36.099091 -115.162268 177 2114ft 0kts
12-Nov-18 09:50 36.099091 -115.162268 177 2114ft 0kts
12-Nov-18 09:51 36.099091 -115.162268 177 2114ft 0kts
12-Nov-18 09:52 36.098981 -115.161730 90 2114ft 9kts
12-Nov-18 09:53 36.098826 -115.159341 183 2114ft 8kts
12-Nov-18 09:54 36.096113 -115.160858 203 2114ft 20kts
12-Nov-18 09:55 36.092169 -115.163115 202 2114ft 24kts
12-Nov-18 09:56 36.087855 -115.165591 204 2114ft 19kts
12-Nov-18 09:57 36.084755 -115.167355 204 2114ft 16kts
12-Nov-18 09:58 36.081617 -115.169147 204 2114ft 19kts
12-Nov-18 09:59 36.078394 -115.170892 170 2114ft 14kts
12-Nov-18 10:00 36.078021 -115.169971 90 2114ft 0kts
12-Nov-18 10:01 36.078021 -115.169971 90 2114ft 0kts
12-Nov-18 10:02 36.078022 -115.169878 88 2114ft 2kts
12-Nov-18 10:03 36.078112 -115.168845 53 2114ft 10kts
12-Nov-18 10:04 36.086639 -115.164209 21 2195ft 121kts
12-Nov-18 10:05 36.107272 -115.158853 318 3328ft 138kts
12-Nov-18 10:06 36.113074 -115.182130 285 4535ft 129kts
12-Nov-18 10:07 36.126815 -115.214930 300 5486ft 159kts
12-Nov-18 10:08 36.126335 -115.250066 222 6316ft 203kts
12-Nov-18 10:09 36.086711 -115.252547 176 7338ft 225kts
12-Nov-18 10:10 36.052408 -115.244099 166 8130ft 231kts
12-Nov-18 10:11 35.998264 -115.228681 166 9342ft 236kts
12-Nov-18 10:12 35.960991 -115.218095 165 10387ft 229kts
12-Nov-18 10:13 35.916150 -115.205386 165 11763ft 223kts
12-Nov-18 10:14 35.873391 -115.193284 165 13090ft 223kts
12-Nov-18 10:15 35.827108 -115.180202 164 14509ft 233kts
12-Nov-18 10:16 35.780625 -115.167117 163 15611ft 255kts
12-Nov-18 10:17 35.725598 -115.165989 180 16028ft 289kts
12-Nov-18 10:18 35.663457 -115.167145 180 16020ft 309kts
12-Nov-18 10:19 35.600417 -115.168258 180 16077ft 313kts
12-Nov-18 10:20 35.532772 -115.169443 180 16080ft 316kts
12-Nov-18 10:21 35.464563 -115.170638 180 16078ft 317kts
12-Nov-18 10:22 35.398572 -115.171791 180 16076ft 317kts
12-Nov-18 10:23 35.331058 -115.172968 180 16067ft 317kts
12-Nov-18 10:24 35.263870 -115.174138 180 16037ft 318kts
12-Nov-18 10:25 35.196992 -115.175298 180 16007ft 318kts
12-Nov-18 10:26 35.132035 -115.176905 187 15993ft 318kts
12-Nov-18 10:27 35.059775 -115.207990 202 16012ft 315kts
12-Nov-18 10:28 34.982019 -115.242421 201 16014ft 315kts
12-Nov-18 10:29 34.906072 -115.275913 200 16015ft 315kts
12-Nov-18 10:30 34.832015 -115.308476 200 16006ft 314kts
12-Nov-18 10:31 34.752484 -115.343400 200 16007ft 314kts
12-Nov-18 10:32 34.672351 -115.378515 200 16018ft 314kts
12-Nov-18 10:33 34.594260 -115.412667 200 16012ft 315kts
12-Nov-18 10:34 34.512267 -115.448450 200 16000ft 315kts
12-Nov-18 10:35 34.432793 -115.483065 200 16001ft 315kts
12-Nov-18 10:36 34.355425 -115.516694 200 16002ft 315kts
12-Nov-18 10:37 34.291029 -115.568569 227 16005ft 309kts
12-Nov-18 10:38 34.233761 -115.633373 227 16003ft 310kts
12-Nov-18 10:39 34.182418 -115.691128 226 16002ft 310kts
12-Nov-18 10:40 34.124283 -115.756403 226 15339ft 317kts
12-Nov-18 10:41 34.063698 -115.809317 215 14139ft 308kts
12-Nov-18 10:42 34.004679 -115.857088 215 12984ft 303kts
12-Nov-18 10:43 33.943414 -115.906611 215 11774ft 299kts
12-Nov-18 10:44 33.901049 -115.967690 269 10936ft 267kts
12-Nov-18 10:45 33.896406 -116.037267 271 10872ft 245kts
12-Nov-18 10:46 33.889275 -116.109687 265 10588ft 255kts
12-Nov-18 10:47 33.878418 -116.182477 265 9132ft 249kts
12-Nov-18 10:48 33.869181 -116.249296 265 7989ft 231kts
12-Nov-18 10:49 33.860674 -116.310310 265 8003ft 218kts
12-Nov-18 10:50 33.818929 -116.344295 195 7217ft 260kts
12-Nov-18 10:51 33.766057 -116.360650 195 5982ft 223kts
12-Nov-18 10:52 33.738001 -116.399752 258 4679ft 184kts
12-Nov-18 10:53 33.752407 -116.435960 327 3477ft 113kts
12-Nov-18 10:54 33.771243 -116.455412 321 1978ft 104kts
12-Nov-18 10:55 33.792714 -116.474869 324 1460ft 116kts
12-Nov-18 10:56 33.813471 -116.493296 324 710ft 93kts
12-Nov-18 10:57 33.828454 -116.506666 305 480ft 24kts
12-Nov-18 10:58 33.828710 -116.507768 253 480ft 0kts
12-Nov-18 10:59 33.827924 -116.508109 144 480ft 7kts
12-Nov-18 11:00 33.826442 -116.506790 155 480ft 10kts
12-Nov-18 11:01 33.825032 -116.509056 224 480ft 5kts
12-Nov-18 11:02 33.824966 -116.509161 238 480ft 0kts
12-Nov-18 11:03 33.824967 -116.509161 238 480ft 0kts

Navigation Log

Ident Type
Flight plan parsing failed, navigation log unavailable